createdAt,value
2024-03-24T00:00:10.542Z,13.70
2024-03-24T00:05:38.263Z,15.00
2024-03-24T00:10:41.201Z,13.20
2024-03-24T00:15:44.338Z,9.10
2024-03-24T00:20:47.261Z,17.90
2024-03-24T00:25:50.345Z,11.00
2024-03-24T00:30:53.399Z,12.60
2024-03-24T00:35:58.207Z,12.10
2024-03-24T00:41:01.270Z,11.60
2024-03-24T00:46:05.005Z,7.70
2024-03-24T00:51:08.103Z,9.50
2024-03-24T00:56:10.957Z,11.50
2024-03-24T01:01:14.032Z,12.80
2024-03-24T01:06:16.957Z,14.60
2024-03-24T01:11:20.026Z,10.70
2024-03-24T01:16:23.162Z,10.40
2024-03-24T01:21:26.136Z,9.20
2024-03-24T01:26:29.087Z,8.80
2024-03-24T01:31:32.131Z,12.40
2024-03-24T01:36:35.189Z,11.80
2024-03-24T01:41:38.084Z,10.40
2024-03-24T01:46:41.249Z,9.00
2024-03-24T01:51:44.242Z,9.10
2024-03-24T01:56:47.210Z,8.70
2024-03-24T02:01:51.131Z,7.70
2024-03-24T02:06:54.202Z,9.50
2024-03-24T02:11:57.414Z,10.50
2024-03-24T02:17:01.682Z,10.20
2024-03-24T02:22:04.814Z,12.60
2024-03-24T02:27:07.765Z,9.80
2024-03-24T02:32:10.755Z,10.00
2024-03-24T02:37:13.732Z,9.60
2024-03-24T02:42:16.758Z,11.80
2024-03-24T02:47:19.732Z,10.40
2024-03-24T02:52:22.750Z,11.10
2024-03-24T02:57:27.021Z,9.90
2024-03-24T03:02:29.970Z,10.90
2024-03-24T03:07:33.177Z,12.40
2024-03-24T03:12:37.250Z,9.90
2024-03-24T03:17:40.451Z,10.10
2024-03-24T03:22:43.641Z,10.80
2024-03-24T03:27:46.522Z,10.20
2024-03-24T03:32:49.508Z,9.20
2024-03-24T03:37:52.614Z,11.90
2024-03-24T03:42:55.664Z,9.50
2024-03-24T03:47:58.659Z,8.70
2024-03-24T03:53:02.896Z,11.20
2024-03-24T03:58:05.883Z,9.30
2024-03-24T04:03:08.871Z,8.60
2024-03-24T04:08:12.745Z,9.90
2024-03-24T04:13:15.794Z,8.90
2024-03-24T04:18:18.839Z,11.30
2024-03-24T04:23:21.867Z,10.40
2024-03-24T04:28:24.906Z,9.50
2024-03-24T04:33:27.945Z,13.00
2024-03-24T04:38:31.392Z,11.60
2024-03-24T04:43:34.821Z,11.90
2024-03-24T04:48:38.128Z,9.10
2024-03-24T04:53:41.536Z,9.50
2024-03-24T04:58:44.613Z,9.50
2024-03-24T05:03:47.715Z,9.20
2024-03-24T05:08:51.881Z,13.00
2024-03-24T05:13:54.860Z,13.10
2024-03-24T05:18:57.883Z,11.80
2024-03-24T05:24:00.984Z,12.70
2024-03-24T05:29:05.948Z,9.70
2024-03-24T05:34:10.561Z,14.30
2024-03-24T05:39:13.686Z,14.00
2024-03-24T05:44:17.605Z,13.10
2024-03-24T05:49:20.722Z,16.40
2024-03-24T05:54:23.669Z,14.10
2024-03-24T05:59:26.763Z,15.90
2024-03-24T06:04:31.917Z,15.50
2024-03-24T06:09:39.737Z,18.60
2024-03-24T06:14:42.671Z,17.10
2024-03-24T06:19:45.606Z,18.40
2024-03-24T06:24:48.723Z,17.70
2024-03-24T06:29:51.731Z,18.80
2024-03-24T06:34:54.719Z,20.90
2024-03-24T06:39:57.681Z,19.00
2024-03-24T06:45:08.793Z,18.20
2024-03-24T06:50:11.860Z,17.50
2024-03-24T06:55:15.146Z,20.40
2024-03-24T07:00:21.585Z,17.00
2024-03-24T07:05:24.764Z,17.10
2024-03-24T07:10:27.685Z,17.50
2024-03-24T07:15:31.097Z,21.30
2024-03-24T07:20:34.751Z,16.80
2024-03-24T07:25:37.812Z,18.40
2024-03-24T07:30:40.855Z,19.90
2024-03-24T07:35:44.407Z,18.20
2024-03-24T07:40:47.618Z,19.80
2024-03-24T07:45:50.718Z,17.40
2024-03-24T07:50:53.769Z,19.10
2024-03-24T07:55:58.982Z,20.10
2024-03-24T08:01:02.148Z,21.20
2024-03-24T08:06:05.589Z,22.10
2024-03-24T08:11:08.502Z,20.90
2024-03-24T08:16:11.472Z,18.90
2024-03-24T08:21:17.041Z,17.30
2024-03-24T08:26:19.937Z,16.40
2024-03-24T08:31:25.583Z,18.80
2024-03-24T08:36:28.677Z,16.60
2024-03-24T08:41:31.646Z,16.80
2024-03-24T08:46:34.645Z,18.50
2024-03-24T08:51:37.984Z,15.70
2024-03-24T08:56:40.986Z,19.50
2024-03-24T09:01:45.512Z,19.00
2024-03-24T09:06:48.549Z,16.20
2024-03-24T09:11:52.789Z,18.00
2024-03-24T09:16:55.799Z,17.00
2024-03-24T09:21:58.891Z,15.60
2024-03-24T09:27:03.945Z,12.20
2024-03-24T09:32:06.934Z,13.40
2024-03-24T09:37:10.147Z,11.90
2024-03-24T09:42:16.589Z,13.10
2024-03-24T09:47:19.767Z,12.60
2024-03-24T09:52:24.164Z,13.00
2024-03-24T09:57:34.491Z,10.20
2024-03-24T10:02:37.488Z,10.20
2024-03-24T10:07:40.917Z,9.50
2024-03-24T10:12:54.987Z,9.90
2024-03-24T10:18:23.308Z,10.00
2024-03-24T10:23:30.783Z,10.00
2024-03-24T10:28:34.263Z,9.10
2024-03-24T10:33:40.561Z,8.40
2024-03-24T10:38:44.640Z,6.50
2024-03-24T10:43:48.884Z,8.70
2024-03-24T10:48:52.995Z,8.60
2024-03-24T10:54:01.460Z,10.40
2024-03-24T10:59:05.455Z,10.00
2024-03-24T11:04:09.564Z,8.30
2024-03-24T11:09:13.587Z,9.10
2024-03-24T11:14:16.792Z,8.80
2024-03-24T11:19:27.836Z,9.50
2024-03-24T11:24:35.885Z,7.80
2024-03-24T11:29:51.960Z,11.10
2024-03-24T11:35:00.692Z,8.70
2024-03-24T11:40:04.726Z,8.30
2024-03-24T11:45:28.146Z,7.10
2024-03-24T11:50:31.375Z,9.40
2024-03-24T11:55:35.160Z,10.20
2024-03-24T12:00:38.728Z,8.30
2024-03-24T12:05:41.631Z,9.30
2024-03-24T12:10:48.417Z,7.30
2024-03-24T12:15:51.530Z,7.70
2024-03-24T12:20:54.878Z,6.60
2024-03-24T12:25:57.815Z,9.90
2024-03-24T12:31:01.433Z,9.70
2024-03-24T12:36:05.750Z,10.00
2024-03-24T12:41:08.963Z,8.90
2024-03-24T12:46:11.954Z,8.10
2024-03-24T12:51:15.696Z,9.10
2024-03-24T12:56:21.240Z,11.00
2024-03-24T13:01:25.921Z,9.40
2024-03-24T13:06:32.024Z,6.60
2024-03-24T13:11:35.323Z,9.30
2024-03-24T13:16:44.080Z,9.50
2024-03-24T13:21:54.138Z,9.90
2024-03-24T13:27:00.584Z,9.20
2024-03-24T13:32:03.825Z,9.50
2024-03-24T13:37:17.751Z,5.40
2024-03-24T13:42:24.417Z,5.40
2024-03-24T13:47:38.457Z,8.70
2024-03-24T13:52:42.968Z,7.10
2024-03-24T13:57:46.023Z,6.20
2024-03-24T14:02:49.198Z,7.30
2024-03-24T14:07:52.296Z,6.50
2024-03-24T14:13:17.491Z,5.90
2024-03-24T14:18:33.088Z,6.40
2024-03-24T14:24:05.941Z,7.90
2024-03-24T14:29:08.867Z,9.20
2024-03-24T14:34:11.938Z,7.30
2024-03-24T14:39:35.058Z,8.90
2024-03-24T14:45:13.840Z,6.50
2024-03-24T14:50:17.091Z,6.90
2024-03-24T14:55:20.369Z,5.70
2024-03-24T15:00:24.651Z,8.40
2024-03-24T15:05:28.629Z,7.00
2024-03-24T15:10:31.787Z,6.80
2024-03-24T15:15:37.437Z,7.50
2024-03-24T15:20:40.465Z,7.20
2024-03-24T15:25:43.440Z,8.20
2024-03-24T15:30:47.796Z,8.30
2024-03-24T15:35:50.892Z,7.40
2024-03-24T15:40:53.852Z,5.90
2024-03-24T15:45:57.031Z,8.20
2024-03-24T15:51:00.487Z,6.70
2024-03-24T15:56:29.338Z,10.00
2024-03-24T16:01:43.889Z,6.30
2024-03-24T16:06:47.321Z,5.60
2024-03-24T16:11:56.408Z,5.70
2024-03-24T16:16:59.639Z,6.80
2024-03-24T16:22:25.645Z,5.90
2024-03-24T16:27:28.870Z,8.60
2024-03-24T16:32:31.967Z,5.80
2024-03-24T16:37:35.186Z,7.60
2024-03-24T16:42:38.762Z,6.00
2024-03-24T16:47:41.774Z,7.70
2024-03-24T16:52:45.069Z,6.80
2024-03-24T16:57:48.210Z,7.50
2024-03-24T17:02:51.838Z,9.30
2024-03-24T17:07:57.874Z,9.80
2024-03-24T17:13:00.996Z,9.80
2024-03-24T17:18:04.435Z,8.90
2024-03-24T17:23:07.687Z,12.00
2024-03-24T17:28:10.825Z,13.20
2024-03-24T17:33:14.903Z,10.60
2024-03-24T17:38:20.183Z,10.00
2024-03-24T17:43:23.553Z,10.40
2024-03-24T17:48:26.738Z,9.30
2024-03-24T17:53:35.657Z,12.10
2024-03-24T17:58:41.746Z,11.20
2024-03-24T18:03:48.478Z,13.20
2024-03-24T18:09:09.834Z,14.40
2024-03-24T18:14:13.118Z,20.90
2024-03-24T18:19:16.547Z,19.30
2024-03-24T18:24:19.620Z,22.30
2024-03-24T18:29:23.007Z,17.80
2024-03-24T18:34:26.252Z,19.80
2024-03-24T18:39:29.417Z,17.00
2024-03-24T18:44:32.517Z,14.30
2024-03-24T18:49:35.924Z,16.70
2024-03-24T18:54:39.322Z,15.80
2024-03-24T18:59:44.664Z,18.30
2024-03-24T19:04:48.056Z,36.00
2024-03-24T19:10:34.531Z,19.20
2024-03-24T19:15:46.447Z,20.90
2024-03-24T19:20:49.715Z,19.70
2024-03-24T19:25:56.881Z,42.20
2024-03-24T19:31:05.471Z,19.40
2024-03-24T19:36:11.704Z,20.30
2024-03-24T19:41:16.013Z,28.40
2024-03-24T19:46:19.681Z,22.70
2024-03-24T19:51:22.815Z,28.60
2024-03-24T19:56:27.613Z,27.30
2024-03-24T20:01:52.330Z,24.40
2024-03-24T20:06:55.501Z,26.60
2024-03-24T20:11:59.618Z,25.00
2024-03-24T20:17:02.698Z,23.30
2024-03-24T20:22:05.856Z,25.30
2024-03-24T20:27:08.982Z,24.00
2024-03-24T20:32:20.832Z,22.50
2024-03-24T20:37:23.834Z,22.60
2024-03-24T20:42:26.980Z,21.30
2024-03-24T20:47:30.103Z,22.00
2024-03-24T20:52:33.114Z,23.00
2024-03-24T20:57:36.346Z,23.50
2024-03-24T21:02:39.708Z,23.80
2024-03-24T21:07:42.733Z,26.40
2024-03-24T21:12:45.871Z,22.30
2024-03-24T21:18:29.600Z,22.00
2024-03-24T21:23:32.617Z,25.60
2024-03-24T21:28:35.723Z,22.10
2024-03-24T21:33:38.929Z,21.20
2024-03-24T21:39:00.484Z,16.80
2024-03-24T21:44:03.768Z,18.00
2024-03-24T21:49:06.833Z,26.00
2024-03-24T21:54:09.969Z,17.90
2024-03-24T21:59:13.320Z,19.90
2024-03-24T22:04:17.730Z,18.40
2024-03-24T22:09:21.401Z,19.00
2024-03-24T22:14:24.501Z,17.20
2024-03-24T22:19:27.593Z,16.50
2024-03-24T22:24:31.365Z,11.60
2024-03-24T22:29:34.519Z,13.50
2024-03-24T22:34:37.665Z,12.50
2024-03-24T22:39:40.921Z,10.40
2024-03-24T22:44:44.009Z,10.70
2024-03-24T22:49:47.027Z,8.20
2024-03-24T22:54:50.071Z,8.90
2024-03-24T22:59:53.105Z,10.80
2024-03-24T23:04:56.049Z,17.30
2024-03-24T23:09:59.447Z,10.10
2024-03-24T23:15:02.635Z,8.50
2024-03-24T23:20:07.192Z,7.50
2024-03-24T23:25:30.439Z,7.60
2024-03-24T23:30:33.643Z,8.00
2024-03-24T23:35:36.846Z,7.40
2024-03-24T23:40:39.874Z,7.40
2024-03-24T23:45:42.934Z,9.90
2024-03-24T23:50:46.108Z,7.60
2024-03-24T23:55:49.279Z,9.20
